sensor_id;sensor_type;location;lat;lon;timestamp;P1;durP1;ratioP1;P2;durP2;ratioP2
18435;SDS011;9346;52.006;4.720;2023-05-13T00:02:06;9.67;;;6.90;;
18435;SDS011;9346;52.006;4.720;2023-05-13T00:04:35;8.13;;;6.40;;
18435;SDS011;9346;52.006;4.720;2023-05-13T00:07:02;7.40;;;5.97;;
18435;SDS011;9346;52.006;4.720;2023-05-13T00:09:29;9.63;;;6.73;;
18435;SDS011;9346;52.006;4.720;2023-05-13T00:11:56;9.57;;;6.60;;
18435;SDS011;9346;52.006;4.720;2023-05-13T00:14:25;6.13;;;5.50;;
18435;SDS011;9346;52.006;4.720;2023-05-13T00:16:52;7.20;;;5.67;;
18435;SDS011;9346;52.006;4.720;2023-05-13T00:19:19;5.50;;;5.00;;
18435;SDS011;9346;52.006;4.720;2023-05-13T00:21:46;5.43;;;4.77;;
18435;SDS011;9346;52.006;4.720;2023-05-13T00:24:13;4.87;;;4.37;;
18435;SDS011;9346;52.006;4.720;2023-05-13T00:26:40;5.90;;;4.90;;
18435;SDS011;9346;52.006;4.720;2023-05-13T00:29:09;5.67;;;4.63;;
18435;SDS011;9346;52.006;4.720;2023-05-13T00:31:38;4.70;;;4.07;;
18435;SDS011;9346;52.006;4.720;2023-05-13T00:34:05;7.33;;;5.13;;
18435;SDS011;9346;52.006;4.720;2023-05-13T00:36:32;5.20;;;4.03;;
18435;SDS011;9346;52.006;4.720;2023-05-13T00:38:59;5.10;;;4.03;;
18435;SDS011;9346;52.006;4.720;2023-05-13T00:41:26;4.07;;;3.63;;
18435;SDS011;9346;52.006;4.720;2023-05-13T00:43:54;5.20;;;4.70;;
18435;SDS011;9346;52.006;4.720;2023-05-13T00:46:21;4.63;;;3.87;;
18435;SDS011;9346;52.006;4.720;2023-05-13T00:48:50;4.33;;;3.90;;
18435;SDS011;9346;52.006;4.720;2023-05-13T00:51:17;5.10;;;3.83;;
18435;SDS011;9346;52.006;4.720;2023-05-13T00:53:44;6.27;;;3.97;;
18435;SDS011;9346;52.006;4.720;2023-05-13T00:56:11;4.93;;;3.73;;
18435;SDS011;9346;52.006;4.720;2023-05-13T00:58:39;4.70;;;3.50;;
18435;SDS011;9346;52.006;4.720;2023-05-13T01:01:09;4.50;;;3.33;;
18435;SDS011;9346;52.006;4.720;2023-05-13T01:03:43;5.03;;;3.27;;
18435;SDS011;9346;52.006;4.720;2023-05-13T01:06:22;3.50;;;3.20;;
18435;SDS011;9346;52.006;4.720;2023-05-13T01:09:00;3.93;;;3.27;;
18435;SDS011;9346;52.006;4.720;2023-05-13T01:11:36;5.47;;;3.27;;
18435;SDS011;9346;52.006;4.720;2023-05-13T01:14:07;4.07;;;3.20;;
18435;SDS011;9346;52.006;4.720;2023-05-13T01:16:38;4.33;;;3.40;;
18435;SDS011;9346;52.006;4.720;2023-05-13T01:19:14;4.03;;;3.30;;
18435;SDS011;9346;52.006;4.720;2023-05-13T01:21:52;4.03;;;3.20;;
18435;SDS011;9346;52.006;4.720;2023-05-13T01:24:20;4.57;;;4.03;;
18435;SDS011;9346;52.006;4.720;2023-05-13T01:26:47;4.90;;;3.80;;
18435;SDS011;9346;52.006;4.720;2023-05-13T01:29:14;4.83;;;4.20;;
18435;SDS011;9346;52.006;4.720;2023-05-13T01:31:42;4.20;;;3.80;;
18435;SDS011;9346;52.006;4.720;2023-05-13T01:34:11;6.23;;;4.03;;
18435;SDS011;9346;52.006;4.720;2023-05-13T01:36:40;5.00;;;4.20;;
18435;SDS011;9346;52.006;4.720;2023-05-13T01:39:09;4.33;;;3.83;;
18435;SDS011;9346;52.006;4.720;2023-05-13T01:41:37;4.63;;;4.00;;
18435;SDS011;9346;52.006;4.720;2023-05-13T01:44:04;5.93;;;4.30;;
18435;SDS011;9346;52.006;4.720;2023-05-13T01:46:30;4.83;;;4.13;;
18435;SDS011;9346;52.006;4.720;2023-05-13T01:48:59;7.93;;;4.13;;
18435;SDS011;9346;52.006;4.720;2023-05-13T01:51:26;7.10;;;4.37;;
18435;SDS011;9346;52.006;4.720;2023-05-13T01:53:53;5.87;;;4.20;;
18435;SDS011;9346;52.006;4.720;2023-05-13T01:56:21;4.83;;;4.33;;
18435;SDS011;9346;52.006;4.720;2023-05-13T01:58:49;4.63;;;4.10;;
18435;SDS011;9346;52.006;4.720;2023-05-13T02:01:17;5.17;;;4.60;;
18435;SDS011;9346;52.006;4.720;2023-05-13T02:03:45;7.83;;;4.53;;
18435;SDS011;9346;52.006;4.720;2023-05-13T02:06:12;6.40;;;4.47;;
18435;SDS011;9346;52.006;4.720;2023-05-13T02:08:39;5.60;;;4.23;;
18435;SDS011;9346;52.006;4.720;2023-05-13T02:11:08;5.23;;;3.80;;
18435;SDS011;9346;52.006;4.720;2023-05-13T02:13:36;5.03;;;4.13;;
18435;SDS011;9346;52.006;4.720;2023-05-13T02:16:04;4.33;;;3.93;;
18435;SDS011;9346;52.006;4.720;2023-05-13T02:18:31;6.97;;;4.33;;
18435;SDS011;9346;52.006;4.720;2023-05-13T02:20:58;4.77;;;4.07;;
18435;SDS011;9346;52.006;4.720;2023-05-13T02:23:25;7.97;;;4.23;;
18435;SDS011;9346;52.006;4.720;2023-05-13T02:25:52;5.80;;;4.03;;
18435;SDS011;9346;52.006;4.720;2023-05-13T02:28:19;5.23;;;4.33;;
18435;SDS011;9346;52.006;4.720;2023-05-13T02:30:49;6.30;;;4.37;;
18435;SDS011;9346;52.006;4.720;2023-05-13T02:33:16;6.27;;;4.10;;
18435;SDS011;9346;52.006;4.720;2023-05-13T02:35:43;6.53;;;3.87;;
18435;SDS011;9346;52.006;4.720;2023-05-13T02:38:10;6.73;;;4.07;;
18435;SDS011;9346;52.006;4.720;2023-05-13T02:40:37;4.73;;;4.23;;
18435;SDS011;9346;52.006;4.720;2023-05-13T02:43:05;4.80;;;4.10;;
18435;SDS011;9346;52.006;4.720;2023-05-13T02:45:31;5.10;;;4.60;;
18435;SDS011;9346;52.006;4.720;2023-05-13T02:48:01;5.57;;;4.57;;
18435;SDS011;9346;52.006;4.720;2023-05-13T02:50:29;9.13;;;4.63;;
18435;SDS011;9346;52.006;4.720;2023-05-13T02:52:56;6.40;;;4.43;;
18435;SDS011;9346;52.006;4.720;2023-05-13T02:55:23;5.00;;;4.37;;
18435;SDS011;9346;52.006;4.720;2023-05-13T02:57:50;5.23;;;4.47;;
18435;SDS011;9346;52.006;4.720;2023-05-13T03:00:17;6.07;;;4.17;;
18435;SDS011;9346;52.006;4.720;2023-05-13T03:02:44;12.13;;;5.53;;
18435;SDS011;9346;52.006;4.720;2023-05-13T03:05:13;6.20;;;5.03;;
18435;SDS011;9346;52.006;4.720;2023-05-13T03:07:40;7.27;;;5.43;;
18435;SDS011;9346;52.006;4.720;2023-05-13T03:10:07;6.40;;;5.77;;
18435;SDS011;9346;52.006;4.720;2023-05-13T03:12:35;8.67;;;6.00;;
18435;SDS011;9346;52.006;4.720;2023-05-13T03:15:02;7.93;;;5.93;;
18435;SDS011;9346;52.006;4.720;2023-05-13T03:17:29;9.70;;;5.60;;
18435;SDS011;9346;52.006;4.720;2023-05-13T03:19:57;7.27;;;5.63;;
18435;SDS011;9346;52.006;4.720;2023-05-13T03:22:26;6.27;;;5.10;;
18435;SDS011;9346;52.006;4.720;2023-05-13T03:24:52;7.00;;;6.07;;
18435;SDS011;9346;52.006;4.720;2023-05-13T03:27:19;7.30;;;5.80;;
18435;SDS011;9346;52.006;4.720;2023-05-13T03:29:46;7.97;;;6.00;;
18435;SDS011;9346;52.006;4.720;2023-05-13T03:32:13;8.00;;;6.53;;
18435;SDS011;9346;52.006;4.720;2023-05-13T03:34:40;7.17;;;6.17;;
18435;SDS011;9346;52.006;4.720;2023-05-13T03:37:07;8.30;;;5.87;;
18435;SDS011;9346;52.006;4.720;2023-05-13T03:39:37;14.90;;;7.00;;
18435;SDS011;9346;52.006;4.720;2023-05-13T03:42:04;11.67;;;7.03;;
18435;SDS011;9346;52.006;4.720;2023-05-13T03:44:32;9.20;;;6.53;;
18435;SDS011;9346;52.006;4.720;2023-05-13T03:46:59;8.37;;;6.40;;
18435;SDS011;9346;52.006;4.720;2023-05-13T03:49:26;11.23;;;6.67;;
18435;SDS011;9346;52.006;4.720;2023-05-13T03:51:53;10.10;;;7.57;;
18435;SDS011;9346;52.006;4.720;2023-05-13T03:54:22;10.57;;;7.17;;
18435;SDS011;9346;52.006;4.720;2023-05-13T03:56:50;9.37;;;6.90;;
18435;SDS011;9346;52.006;4.720;2023-05-13T03:59:18;8.03;;;6.57;;
18435;SDS011;9346;52.006;4.720;2023-05-13T04:01:45;8.13;;;6.80;;
18435;SDS011;9346;52.006;4.720;2023-05-13T04:04:12;9.80;;;6.67;;
18435;SDS011;9346;52.006;4.720;2023-05-13T04:06:39;11.53;;;7.50;;
18435;SDS011;9346;52.006;4.720;2023-05-13T04:09:06;9.83;;;7.20;;
18435;SDS011;9346;52.006;4.720;2023-05-13T04:11:33;10.33;;;7.73;;
18435;SDS011;9346;52.006;4.720;2023-05-13T04:14:02;8.83;;;7.00;;
18435;SDS011;9346;52.006;4.720;2023-05-13T04:16:29;8.40;;;6.83;;
18435;SDS011;9346;52.006;4.720;2023-05-13T04:18:57;9.13;;;7.00;;
18435;SDS011;9346;52.006;4.720;2023-05-13T04:21:24;9.03;;;7.17;;
18435;SDS011;9346;52.006;4.720;2023-05-13T04:23:51;9.27;;;7.83;;
18435;SDS011;9346;52.006;4.720;2023-05-13T04:26:18;12.57;;;7.43;;
18435;SDS011;9346;52.006;4.720;2023-05-13T04:28:46;9.10;;;7.40;;
18435;SDS011;9346;52.006;4.720;2023-05-13T04:31:14;9.60;;;7.43;;
18435;SDS011;9346;52.006;4.720;2023-05-13T04:33:41;9.00;;;7.43;;
18435;SDS011;9346;52.006;4.720;2023-05-13T04:36:09;10.60;;;7.70;;
18435;SDS011;9346;52.006;4.720;2023-05-13T04:38:36;12.73;;;8.33;;
18435;SDS011;9346;52.006;4.720;2023-05-13T04:41:03;10.73;;;8.83;;
18435;SDS011;9346;52.006;4.720;2023-05-13T04:43:30;10.77;;;8.23;;
18435;SDS011;9346;52.006;4.720;2023-05-13T04:45:58;15.53;;;8.43;;
18435;SDS011;9346;52.006;4.720;2023-05-13T04:48:27;12.47;;;8.20;;
18435;SDS011;9346;52.006;4.720;2023-05-13T04:50:54;13.30;;;8.67;;
18435;SDS011;9346;52.006;4.720;2023-05-13T04:53:22;12.77;;;7.90;;
18435;SDS011;9346;52.006;4.720;2023-05-13T04:55:49;9.93;;;7.93;;
18435;SDS011;9346;52.006;4.720;2023-05-13T04:58:16;11.70;;;8.37;;
18435;SDS011;9346;52.006;4.720;2023-05-13T05:00:43;12.87;;;9.10;;
18435;SDS011;9346;52.006;4.720;2023-05-13T05:03:10;10.33;;;8.47;;
18435;SDS011;9346;52.006;4.720;2023-05-13T05:05:39;11.50;;;8.97;;
18435;SDS011;9346;52.006;4.720;2023-05-13T05:08:06;14.33;;;9.20;;
18435;SDS011;9346;52.006;4.720;2023-05-13T05:10:33;12.37;;;9.60;;
18435;SDS011;9346;52.006;4.720;2023-05-13T05:13:00;12.80;;;9.00;;
18435;SDS011;9346;52.006;4.720;2023-05-13T05:15:26;12.73;;;8.63;;
18435;SDS011;9346;52.006;4.720;2023-05-13T05:17:53;9.43;;;8.27;;
18435;SDS011;9346;52.006;4.720;2023-05-13T05:20:21;11.87;;;8.97;;
18435;SDS011;9346;52.006;4.720;2023-05-13T05:22:50;12.77;;;8.80;;
18435;SDS011;9346;52.006;4.720;2023-05-13T05:25:16;10.40;;;7.83;;
18435;SDS011;9346;52.006;4.720;2023-05-13T05:27:43;14.93;;;8.83;;
18435;SDS011;9346;52.006;4.720;2023-05-13T05:30:11;13.13;;;8.47;;
18435;SDS011;9346;52.006;4.720;2023-05-13T05:32:39;13.00;;;9.37;;
18435;SDS011;9346;52.006;4.720;2023-05-13T05:35:06;11.13;;;8.87;;
18435;SDS011;9346;52.006;4.720;2023-05-13T05:37:34;11.57;;;9.10;;
18435;SDS011;9346;52.006;4.720;2023-05-13T05:40:03;12.10;;;8.63;;
18435;SDS011;9346;52.006;4.720;2023-05-13T05:42:31;10.93;;;9.00;;
18435;SDS011;9346;52.006;4.720;2023-05-13T05:44:58;11.30;;;8.33;;
18435;SDS011;9346;52.006;4.720;2023-05-13T05:47:25;10.90;;;8.43;;
18435;SDS011;9346;52.006;4.720;2023-05-13T05:49:52;9.10;;;7.20;;
18435;SDS011;9346;52.006;4.720;2023-05-13T05:52:22;10.83;;;8.33;;
18435;SDS011;9346;52.006;4.720;2023-05-13T05:54:49;10.27;;;8.37;;
18435;SDS011;9346;52.006;4.720;2023-05-13T05:57:18;13.63;;;8.60;;
18435;SDS011;9346;52.006;4.720;2023-05-13T05:59:45;12.80;;;8.80;;
18435;SDS011;9346;52.006;4.720;2023-05-13T06:02:13;9.00;;;7.93;;
18435;SDS011;9346;52.006;4.720;2023-05-13T06:04:40;12.80;;;8.17;;
18435;SDS011;9346;52.006;4.720;2023-05-13T06:07:08;10.13;;;8.47;;
18435;SDS011;9346;52.006;4.720;2023-05-13T06:09:35;9.80;;;7.97;;
18435;SDS011;9346;52.006;4.720;2023-05-13T06:12:04;11.37;;;8.03;;
18435;SDS011;9346;52.006;4.720;2023-05-13T06:14:34;10.17;;;8.17;;
18435;SDS011;9346;52.006;4.720;2023-05-13T06:17:06;9.37;;;7.90;;
18435;SDS011;9346;52.006;4.720;2023-05-13T06:19:32;19.77;;;9.00;;
18435;SDS011;9346;52.006;4.720;2023-05-13T06:22:02;9.73;;;7.80;;
18435;SDS011;9346;52.006;4.720;2023-05-13T06:24:34;10.60;;;7.93;;
18435;SDS011;9346;52.006;4.720;2023-05-13T06:27:01;9.10;;;7.10;;
18435;SDS011;9346;52.006;4.720;2023-05-13T06:29:30;14.27;;;9.57;;
18435;SDS011;9346;52.006;4.720;2023-05-13T06:32:01;10.90;;;8.67;;
18435;SDS011;9346;52.006;4.720;2023-05-13T06:34:28;12.83;;;8.27;;
18435;SDS011;9346;52.006;4.720;2023-05-13T06:36:55;12.70;;;7.87;;
18435;SDS011;9346;52.006;4.720;2023-05-13T06:39:22;11.07;;;7.50;;
18435;SDS011;9346;52.006;4.720;2023-05-13T06:41:49;10.67;;;7.93;;
18435;SDS011;9346;52.006;4.720;2023-05-13T06:44:16;8.67;;;7.67;;
18435;SDS011;9346;52.006;4.720;2023-05-13T06:46:45;8.87;;;7.90;;
18435;SDS011;9346;52.006;4.720;2023-05-13T06:49:12;7.77;;;6.90;;
18435;SDS011;9346;52.006;4.720;2023-05-13T06:51:39;10.77;;;7.83;;
18435;SDS011;9346;52.006;4.720;2023-05-13T06:54:07;10.33;;;8.27;;
18435;SDS011;9346;52.006;4.720;2023-05-13T06:56:35;11.87;;;8.27;;
18435;SDS011;9346;52.006;4.720;2023-05-13T06:59:02;10.10;;;7.50;;
18435;SDS011;9346;52.006;4.720;2023-05-13T07:01:29;9.50;;;7.93;;
18435;SDS011;9346;52.006;4.720;2023-05-13T07:03:58;8.50;;;6.90;;
18435;SDS011;9346;52.006;4.720;2023-05-13T07:06:27;12.37;;;7.47;;
18435;SDS011;9346;52.006;4.720;2023-05-13T07:08:55;8.70;;;6.87;;
18435;SDS011;9346;52.006;4.720;2023-05-13T07:11:22;10.10;;;6.70;;
18435;SDS011;9346;52.006;4.720;2023-05-13T07:13:49;9.77;;;8.00;;
18435;SDS011;9346;52.006;4.720;2023-05-13T07:16:16;9.37;;;6.80;;
18435;SDS011;9346;52.006;4.720;2023-05-13T07:18:44;6.77;;;6.17;;
18435;SDS011;9346;52.006;4.720;2023-05-13T07:21:13;10.00;;;7.00;;
18435;SDS011;9346;52.006;4.720;2023-05-13T07:23:40;8.87;;;6.33;;
18435;SDS011;9346;52.006;4.720;2023-05-13T07:26:07;7.23;;;6.13;;
18435;SDS011;9346;52.006;4.720;2023-05-13T07:28:34;9.20;;;6.70;;
18435;SDS011;9346;52.006;4.720;2023-05-13T07:31:03;10.10;;;6.27;;
18435;SDS011;9346;52.006;4.720;2023-05-13T07:33:30;7.90;;;5.40;;
18435;SDS011;9346;52.006;4.720;2023-05-13T07:35:57;10.37;;;6.57;;
18435;SDS011;9346;52.006;4.720;2023-05-13T07:38:27;9.03;;;5.43;;
18435;SDS011;9346;52.006;4.720;2023-05-13T07:40:54;6.93;;;5.77;;
18435;SDS011;9346;52.006;4.720;2023-05-13T07:43:21;7.97;;;6.03;;
18435;SDS011;9346;52.006;4.720;2023-05-13T07:45:49;7.33;;;5.10;;
18435;SDS011;9346;52.006;4.720;2023-05-13T07:48:15;9.37;;;5.73;;
18435;SDS011;9346;52.006;4.720;2023-05-13T07:50:43;9.73;;;6.17;;
18435;SDS011;9346;52.006;4.720;2023-05-13T07:53:09;6.13;;;5.53;;
18435;SDS011;9346;52.006;4.720;2023-05-13T07:55:38;6.77;;;5.73;;
18435;SDS011;9346;52.006;4.720;2023-05-13T07:58:05;8.30;;;5.10;;
18435;SDS011;9346;52.006;4.720;2023-05-13T08:00:32;7.10;;;4.77;;
18435;SDS011;9346;52.006;4.720;2023-05-13T08:02:59;6.43;;;4.67;;
18435;SDS011;9346;52.006;4.720;2023-05-13T08:05:26;6.07;;;4.87;;
18435;SDS011;9346;52.006;4.720;2023-05-13T08:07:53;7.70;;;4.97;;
18435;SDS011;9346;52.006;4.720;2023-05-13T08:10:20;6.50;;;4.83;;
18435;SDS011;9346;52.006;4.720;2023-05-13T08:12:48;7.37;;;5.17;;
18435;SDS011;9346;52.006;4.720;2023-05-13T08:15:21;6.60;;;5.70;;
18435;SDS011;9346;52.006;4.720;2023-05-13T08:17:48;6.63;;;5.03;;
18435;SDS011;9346;52.006;4.720;2023-05-13T08:20:17;5.00;;;4.50;;
18435;SDS011;9346;52.006;4.720;2023-05-13T08:22:44;5.20;;;4.70;;
18435;SDS011;9346;52.006;4.720;2023-05-13T08:25:11;6.60;;;5.20;;
18435;SDS011;9346;52.006;4.720;2023-05-13T08:27:39;5.93;;;5.03;;
18435;SDS011;9346;52.006;4.720;2023-05-13T08:30:09;6.07;;;5.13;;
18435;SDS011;9346;52.006;4.720;2023-05-13T08:32:36;7.93;;;5.27;;
18435;SDS011;9346;52.006;4.720;2023-05-13T08:35:03;7.07;;;5.43;;
18435;SDS011;9346;52.006;4.720;2023-05-13T08:37:30;7.33;;;5.33;;
18435;SDS011;9346;52.006;4.720;2023-05-13T08:39:57;5.73;;;4.90;;
18435;SDS011;9346;52.006;4.720;2023-05-13T08:42:26;7.07;;;5.17;;
18435;SDS011;9346;52.006;4.720;2023-05-13T08:44:54;5.80;;;5.13;;
18435;SDS011;9346;52.006;4.720;2023-05-13T08:47:25;9.13;;;5.07;;
18435;SDS011;9346;52.006;4.720;2023-05-13T08:49:58;8.13;;;5.53;;
18435;SDS011;9346;52.006;4.720;2023-05-13T08:52:25;7.47;;;4.83;;
18435;SDS011;9346;52.006;4.720;2023-05-13T08:54:53;7.20;;;5.00;;
18435;SDS011;9346;52.006;4.720;2023-05-13T08:57:24;6.80;;;5.10;;
18435;SDS011;9346;52.006;4.720;2023-05-13T08:59:52;6.67;;;4.90;;
18435;SDS011;9346;52.006;4.720;2023-05-13T09:02:19;5.73;;;5.13;;
18435;SDS011;9346;52.006;4.720;2023-05-13T09:04:47;5.20;;;4.70;;
18435;SDS011;9346;52.006;4.720;2023-05-13T09:07:20;6.53;;;5.07;;
18435;SDS011;9346;52.006;4.720;2023-05-13T09:09:46;7.23;;;5.67;;
18435;SDS011;9346;52.006;4.720;2023-05-13T09:15:14;4.77;;;4.27;;
18435;SDS011;9346;52.006;4.720;2023-05-13T09:17:43;6.07;;;5.00;;
18435;SDS011;9346;52.006;4.720;2023-05-13T09:20:13;6.30;;;4.43;;
18435;SDS011;9346;52.006;4.720;2023-05-13T09:22:45;5.60;;;4.27;;
18435;SDS011;9346;52.006;4.720;2023-05-13T09:25:13;6.33;;;4.17;;
18435;SDS011;9346;52.006;4.720;2023-05-13T09:27:41;5.20;;;4.33;;
18435;SDS011;9346;52.006;4.720;2023-05-13T09:30:09;6.87;;;4.67;;
18435;SDS011;9346;52.006;4.720;2023-05-13T09:32:37;5.83;;;3.70;;
18435;SDS011;9346;52.006;4.720;2023-05-13T09:35:08;6.73;;;4.90;;
18435;SDS011;9346;52.006;4.720;2023-05-13T09:38:10;5.67;;;5.00;;
18435;SDS011;9346;52.006;4.720;2023-05-13T09:40:38;6.00;;;4.17;;
18435;SDS011;9346;52.006;4.720;2023-05-13T09:43:05;5.60;;;4.30;;
18435;SDS011;9346;52.006;4.720;2023-05-13T09:45:33;7.07;;;4.87;;
18435;SDS011;9346;52.006;4.720;2023-05-13T09:48:01;6.93;;;4.43;;
18435;SDS011;9346;52.006;4.720;2023-05-13T09:50:28;4.57;;;4.10;;
18435;SDS011;9346;52.006;4.720;2023-05-13T09:52:57;5.70;;;4.53;;
18435;SDS011;9346;52.006;4.720;2023-05-13T09:55:26;6.67;;;4.13;;
18435;SDS011;9346;52.006;4.720;2023-05-13T09:57:54;6.50;;;4.63;;
18435;SDS011;9346;52.006;4.720;2023-05-13T10:00:21;5.27;;;4.30;;
18435;SDS011;9346;52.006;4.720;2023-05-13T10:02:48;5.37;;;4.20;;
18435;SDS011;9346;52.006;4.720;2023-05-13T10:05:15;6.27;;;4.83;;
18435;SDS011;9346;52.006;4.720;2023-05-13T10:07:43;7.53;;;4.87;;
18435;SDS011;9346;52.006;4.720;2023-05-13T10:10:10;7.20;;;4.80;;
18435;SDS011;9346;52.006;4.720;2023-05-13T10:12:39;8.03;;;5.47;;
18435;SDS011;9346;52.006;4.720;2023-05-13T10:15:07;10.67;;;4.67;;
18435;SDS011;9346;52.006;4.720;2023-05-13T10:17:35;14.33;;;5.00;;
18435;SDS011;9346;52.006;4.720;2023-05-13T10:20:03;7.87;;;4.80;;
18435;SDS011;9346;52.006;4.720;2023-05-13T10:22:31;7.33;;;5.20;;
18435;SDS011;9346;52.006;4.720;2023-05-13T10:24:59;6.40;;;5.10;;
18435;SDS011;9346;52.006;4.720;2023-05-13T10:27:28;9.53;;;4.87;;
18435;SDS011;9346;52.006;4.720;2023-05-13T10:29:59;6.47;;;4.63;;
18435;SDS011;9346;52.006;4.720;2023-05-13T10:32:29;6.83;;;4.67;;
18435;SDS011;9346;52.006;4.720;2023-05-13T10:34:59;6.40;;;4.70;;
18435;SDS011;9346;52.006;4.720;2023-05-13T10:37:44;5.77;;;4.70;;
18435;SDS011;9346;52.006;4.720;2023-05-13T10:40:31;7.57;;;5.53;;
18435;SDS011;9346;52.006;4.720;2023-05-13T10:43:25;9.60;;;4.83;;
18435;SDS011;9346;52.006;4.720;2023-05-13T10:45:57;5.57;;;4.63;;
18435;SDS011;9346;52.006;4.720;2023-05-13T10:48:25;5.93;;;4.27;;
18435;SDS011;9346;52.006;4.720;2023-05-13T10:50:53;6.90;;;4.27;;
18435;SDS011;9346;52.006;4.720;2023-05-13T10:53:22;5.53;;;5.00;;
18435;SDS011;9346;52.006;4.720;2023-05-13T10:55:53;9.00;;;5.00;;
18435;SDS011;9346;52.006;4.720;2023-05-13T10:58:27;6.20;;;4.70;;
18435;SDS011;9346;52.006;4.720;2023-05-13T11:01:11;6.60;;;4.30;;
18435;SDS011;9346;52.006;4.720;2023-05-13T11:03:39;9.07;;;4.67;;
18435;SDS011;9346;52.006;4.720;2023-05-13T11:06:14;5.13;;;4.50;;
18435;SDS011;9346;52.006;4.720;2023-05-13T11:08:43;6.60;;;5.27;;
18435;SDS011;9346;52.006;4.720;2023-05-13T11:11:25;5.53;;;5.03;;
18435;SDS011;9346;52.006;4.720;2023-05-13T11:14:01;5.70;;;4.60;;
18435;SDS011;9346;52.006;4.720;2023-05-13T11:16:34;6.37;;;5.20;;
18435;SDS011;9346;52.006;4.720;2023-05-13T11:19:02;5.53;;;4.33;;
18435;SDS011;9346;52.006;4.720;2023-05-13T11:21:31;7.43;;;4.63;;
18435;SDS011;9346;52.006;4.720;2023-05-13T11:24:00;5.40;;;4.40;;
18435;SDS011;9346;52.006;4.720;2023-05-13T11:26:42;4.70;;;4.10;;
18435;SDS011;9346;52.006;4.720;2023-05-13T11:29:10;5.73;;;4.57;;
18435;SDS011;9346;52.006;4.720;2023-05-13T11:31:43;8.23;;;4.57;;
18435;SDS011;9346;52.006;4.720;2023-05-13T11:34:12;5.27;;;4.77;;
18435;SDS011;9346;52.006;4.720;2023-05-13T11:36:41;5.63;;;4.77;;
18435;SDS011;9346;52.006;4.720;2023-05-13T11:39:10;5.03;;;4.50;;
18435;SDS011;9346;52.006;4.720;2023-05-13T11:41:39;4.47;;;4.07;;
18435;SDS011;9346;52.006;4.720;2023-05-13T11:44:07;6.80;;;5.47;;
18435;SDS011;9346;52.006;4.720;2023-05-13T11:46:36;4.80;;;4.13;;
18435;SDS011;9346;52.006;4.720;2023-05-13T11:49:06;4.73;;;4.30;;
18435;SDS011;9346;52.006;4.720;2023-05-13T11:51:33;5.07;;;4.13;;
18435;SDS011;9346;52.006;4.720;2023-05-13T11:54:01;5.73;;;3.93;;
18435;SDS011;9346;52.006;4.720;2023-05-13T11:56:28;5.63;;;4.40;;
18435;SDS011;9346;52.006;4.720;2023-05-13T11:58:55;6.57;;;4.73;;
18435;SDS011;9346;52.006;4.720;2023-05-13T12:01:38;5.13;;;4.33;;
18435;SDS011;9346;52.006;4.720;2023-05-13T12:04:07;6.33;;;4.73;;
18435;SDS011;9346;52.006;4.720;2023-05-13T12:06:34;5.57;;;4.07;;
18435;SDS011;9346;52.006;4.720;2023-05-13T12:09:04;6.60;;;4.50;;
18435;SDS011;9346;52.006;4.720;2023-05-13T12:11:33;6.33;;;4.90;;
18435;SDS011;9346;52.006;4.720;2023-05-13T12:14:01;7.13;;;4.50;;
18435;SDS011;9346;52.006;4.720;2023-05-13T12:16:28;7.37;;;5.20;;
18435;SDS011;9346;52.006;4.720;2023-05-13T12:18:58;6.00;;;5.07;;
18435;SDS011;9346;52.006;4.720;2023-05-13T12:21:30;5.63;;;4.47;;
18435;SDS011;9346;52.006;4.720;2023-05-13T12:23:58;5.93;;;4.10;;
18435;SDS011;9346;52.006;4.720;2023-05-13T12:26:26;6.47;;;4.47;;
18435;SDS011;9346;52.006;4.720;2023-05-13T12:28:56;5.17;;;4.43;;
18435;SDS011;9346;52.006;4.720;2023-05-13T12:31:24;7.87;;;5.27;;
18435;SDS011;9346;52.006;4.720;2023-05-13T12:33:52;5.30;;;4.73;;
18435;SDS011;9346;52.006;4.720;2023-05-13T12:36:19;10.47;;;5.50;;
18435;SDS011;9346;52.006;4.720;2023-05-13T12:38:55;6.00;;;4.67;;
18435;SDS011;9346;52.006;4.720;2023-05-13T12:41:23;6.03;;;4.87;;
18435;SDS011;9346;52.006;4.720;2023-05-13T12:43:56;5.83;;;5.23;;
18435;SDS011;9346;52.006;4.720;2023-05-13T12:46:24;8.20;;;4.83;;
18435;SDS011;9346;52.006;4.720;2023-05-13T12:48:53;7.60;;;5.33;;
18435;SDS011;9346;52.006;4.720;2023-05-13T12:51:21;5.97;;;5.27;;
18435;SDS011;9346;52.006;4.720;2023-05-13T12:53:48;6.93;;;5.70;;
18435;SDS011;9346;52.006;4.720;2023-05-13T12:56:20;7.07;;;4.93;;
18435;SDS011;9346;52.006;4.720;2023-05-13T12:58:50;5.83;;;5.23;;
18435;SDS011;9346;52.006;4.720;2023-05-13T13:01:19;9.07;;;5.67;;
18435;SDS011;9346;52.006;4.720;2023-05-13T13:03:46;7.20;;;5.77;;
18435;SDS011;9346;52.006;4.720;2023-05-13T13:06:13;5.93;;;5.33;;
18435;SDS011;9346;52.006;4.720;2023-05-13T13:08:43;7.00;;;4.83;;
18435;SDS011;9346;52.006;4.720;2023-05-13T13:11:10;6.20;;;4.73;;
18435;SDS011;9346;52.006;4.720;2023-05-13T13:13:44;7.30;;;5.67;;
18435;SDS011;9346;52.006;4.720;2023-05-13T13:16:11;6.60;;;5.67;;
18435;SDS011;9346;52.006;4.720;2023-05-13T13:18:38;6.57;;;5.33;;
18435;SDS011;9346;52.006;4.720;2023-05-13T13:21:06;7.00;;;5.60;;
18435;SDS011;9346;52.006;4.720;2023-05-13T13:23:33;7.13;;;5.73;;
18435;SDS011;9346;52.006;4.720;2023-05-13T13:26:00;6.73;;;5.13;;
18435;SDS011;9346;52.006;4.720;2023-05-13T13:28:29;7.13;;;6.33;;
18435;SDS011;9346;52.006;4.720;2023-05-13T13:30:58;6.93;;;5.33;;
18435;SDS011;9346;52.006;4.720;2023-05-13T13:33:25;8.20;;;5.43;;
18435;SDS011;9346;52.006;4.720;2023-05-13T13:35:52;7.27;;;5.63;;
18435;SDS011;9346;52.006;4.720;2023-05-13T13:38:21;6.17;;;5.00;;
18435;SDS011;9346;52.006;4.720;2023-05-13T13:40:48;5.73;;;5.13;;
18435;SDS011;9346;52.006;4.720;2023-05-13T13:43:15;5.77;;;5.17;;
18435;SDS011;9346;52.006;4.720;2023-05-13T13:45:42;11.10;;;5.57;;
18435;SDS011;9346;52.006;4.720;2023-05-13T13:48:10;6.57;;;4.93;;
18435;SDS011;9346;52.006;4.720;2023-05-13T13:50:38;6.30;;;4.50;;
18435;SDS011;9346;52.006;4.720;2023-05-13T13:53:05;6.80;;;5.10;;
18435;SDS011;9346;52.006;4.720;2023-05-13T13:55:36;6.53;;;4.83;;
18435;SDS011;9346;52.006;4.720;2023-05-13T13:58:02;5.63;;;4.50;;
18435;SDS011;9346;52.006;4.720;2023-05-13T14:00:30;6.73;;;5.17;;
18435;SDS011;9346;52.006;4.720;2023-05-13T14:03:00;6.63;;;4.23;;
18435;SDS011;9346;52.006;4.720;2023-05-13T14:05:29;6.03;;;5.43;;
18435;SDS011;9346;52.006;4.720;2023-05-13T14:07:55;4.83;;;4.17;;
18435;SDS011;9346;52.006;4.720;2023-05-13T14:10:22;6.20;;;4.60;;
18435;SDS011;9346;52.006;4.720;2023-05-13T14:12:49;7.83;;;5.17;;
18435;SDS011;9346;52.006;4.720;2023-05-13T14:15:17;5.73;;;4.80;;
18435;SDS011;9346;52.006;4.720;2023-05-13T14:17:44;5.20;;;4.37;;
18435;SDS011;9346;52.006;4.720;2023-05-13T14:20:11;7.23;;;4.63;;
18435;SDS011;9346;52.006;4.720;2023-05-13T14:22:39;5.27;;;4.30;;
18435;SDS011;9346;52.006;4.720;2023-05-13T14:25:06;5.60;;;5.00;;
18435;SDS011;9346;52.006;4.720;2023-05-13T14:27:33;5.83;;;4.37;;
18435;SDS011;9346;52.006;4.720;2023-05-13T14:30:01;5.00;;;4.50;;
18435;SDS011;9346;52.006;4.720;2023-05-13T14:32:29;6.03;;;4.60;;
18435;SDS011;9346;52.006;4.720;2023-05-13T14:34:55;7.07;;;5.30;;
18435;SDS011;9346;52.006;4.720;2023-05-13T14:37:22;6.13;;;4.63;;
18435;SDS011;9346;52.006;4.720;2023-05-13T14:39:51;7.07;;;5.30;;
18435;SDS011;9346;52.006;4.720;2023-05-13T14:42:18;5.40;;;4.87;;
18435;SDS011;9346;52.006;4.720;2023-05-13T14:44:45;5.97;;;4.93;;
18435;SDS011;9346;52.006;4.720;2023-05-13T14:47:12;6.03;;;4.87;;
18435;SDS011;9346;52.006;4.720;2023-05-13T14:49:42;4.37;;;3.70;;
18435;SDS011;9346;52.006;4.720;2023-05-13T14:52:09;5.37;;;4.57;;
18435;SDS011;9346;52.006;4.720;2023-05-13T14:54:44;6.27;;;4.47;;
18435;SDS011;9346;52.006;4.720;2023-05-13T14:57:12;5.70;;;4.70;;
18435;SDS011;9346;52.006;4.720;2023-05-13T14:59:39;6.57;;;4.83;;
18435;SDS011;9346;52.006;4.720;2023-05-13T15:02:06;5.37;;;4.33;;
18435;SDS011;9346;52.006;4.720;2023-05-13T15:04:33;4.80;;;4.30;;
18435;SDS011;9346;52.006;4.720;2023-05-13T15:07:00;5.47;;;4.40;;
18435;SDS011;9346;52.006;4.720;2023-05-13T15:09:28;5.53;;;4.60;;